Time;durP1;ratioP1;P1;durP2;ratioP2;P2;SDS_P1;SDS_P2;PMS_P1;PMS_P2;Temp;Humidity;BMP_temperature;BMP_pressure;BME280_temperature;BME280_humidity;BME280_pressure;Samples;Min_cycle;Max_cycle;Signal;HPM_P1;HPM_P2
2024/03/06 00:01:47;;;;;;;;;;;8.60;89.40;;;;;;5071090;28;20019;-62
2024/03/06 00:04:20;;;;;;;;;;;8.60;89.50;;;;;;5074135;28;19924;-61
2024/03/06 00:06:55;;;;;;;;;;;8.60;89.50;;;;;;5073357;28;19934;-62
2024/03/06 00:09:28;;;;;;;;;;;8.60;89.40;;;;;;5074072;28;19935;-62
2024/03/06 00:12:08;;;;;;;;;;;8.60;89.40;;;;;;5074655;28;19929;-62
2024/03/06 00:14:41;;;;;;;;;;;8.50;89.40;;;;;;5070789;28;19928;-61
2024/03/06 00:17:14;;;;;;;;;;;8.60;89.50;;;;;;5073224;28;19985;-62
2024/03/06 00:19:47;;;;;;;;;;;8.60;89.50;;;;;;5073618;28;19950;-62
2024/03/06 00:22:22;;;;;;;;;;;8.50;89.40;;;;;;5069501;28;19928;-62
2024/03/06 00:24:55;;;;;;;;;;;8.50;89.40;;;;;;5070927;28;19931;-61
2024/03/06 00:27:28;;;;;;;;;;;8.50;89.50;;;;;;5072751;28;19936;-61
2024/03/06 00:30:01;;;;;;;;;;;8.50;89.50;;;;;;5071544;28;19935;-62
2024/03/06 00:32:34;;;;;;;;;;;8.50;89.40;;;;;;5070342;28;19947;-62
2024/03/06 00:35:08;;;;;;;;;;;8.50;89.40;;;;;;5074982;28;19930;-61
2024/03/06 00:37:43;;;;;;;;;;;8.40;89.40;;;;;;5066636;28;19963;-63
2024/03/06 00:40:16;;;;;;;;;;;8.40;89.40;;;;;;5071017;28;19959;-64
2024/03/06 00:42:49;;;;;;;;;;;8.40;89.60;;;;;;5069379;28;19925;-64
2024/03/06 00:45:22;;;;;;;;;;;8.40;89.50;;;;;;5062973;28;19928;-64
2024/03/06 00:47:55;;;;;;;;;;;8.40;89.50;;;;;;5068618;28;19928;-63
2024/03/06 00:50:28;;;;;;;;;;;8.40;89.50;;;;;;5076257;28;19928;-64
2024/03/06 00:53:04;;;;;;;;;;;8.40;89.50;;;;;;5072426;28;20479;-64
2024/03/06 00:55:37;;;;;;;;;;;8.40;89.50;;;;;;5073160;28;19932;-63
2024/03/06 00:58:10;;;;;;;;;;;8.40;89.50;;;;;;5073407;28;19928;-63
2024/03/06 01:00:43;;;;;;;;;;;8.40;89.50;;;;;;5072073;28;19929;-64
2024/03/06 01:03:16;;;;;;;;;;;8.40;89.50;;;;;;5069079;28;19928;-63
2024/03/06 01:05:49;;;;;;;;;;;8.30;89.50;;;;;;5074261;28;19935;-63
2024/03/06 01:08:24;;;;;;;;;;;8.30;89.60;;;;;;5069955;28;19928;-64
2024/03/06 01:10:57;;;;;;;;;;;8.30;89.60;;;;;;5074882;28;20020;-64
2024/03/06 01:13:30;;;;;;;;;;;8.30;89.60;;;;;;5073914;28;19924;-64
2024/03/06 01:16:04;;;;;;;;;;;8.30;89.60;;;;;;5074154;28;19928;-64
2024/03/06 01:18:37;;;;;;;;;;;8.20;89.70;;;;;;5073958;28;19933;-63
2024/03/06 01:21:10;;;;;;;;;;;8.20;89.80;;;;;;5072077;28;19936;-63
2024/03/06 01:23:45;;;;;;;;;;;8.20;89.70;;;;;;5075400;28;19974;-65
2024/03/06 01:26:18;;;;;;;;;;;8.20;89.80;;;;;;5071486;28;19928;-64
2024/03/06 01:28:51;;;;;;;;;;;8.20;89.80;;;;;;5073262;28;19925;-64
2024/03/06 01:31:24;;;;;;;;;;;8.20;89.80;;;;;;5074573;28;20402;-64
2024/03/06 01:33:57;;;;;;;;;;;8.20;89.80;;;;;;5071260;28;19932;-63
2024/03/06 01:36:30;;;;;;;;;;;8.20;89.90;;;;;;5073849;28;20342;-64
2024/03/06 01:39:05;;;;;;;;;;;8.20;89.80;;;;;;5071421;28;19931;-64
2024/03/06 01:41:38;;;;;;;;;;;8.10;89.80;;;;;;5072863;28;20372;-62
2024/03/06 01:44:12;;;;;;;;;;;8.10;89.70;;;;;;5075913;28;19993;-65
2024/03/06 01:46:39;;;;;;;;;;;8.10;89.70;;;;;;5072034;28;20385;-64
2024/03/06 01:49:13;;;;;;;;;;;8.10;89.60;;;;;;5075867;28;19925;-65
2024/03/06 01:51:49;;;;;;;;;;;8.10;89.60;;;;;;5077142;28;20019;-64
2024/03/06 01:54:24;;;;;;;;;;;8.20;89.60;;;;;;5073758;28;19928;-63
2024/03/06 01:56:59;;;;;;;;;;;8.10;89.60;;;;;;5071492;28;19939;-65
2024/03/06 01:59:32;;;;;;;;;;;8.10;89.60;;;;;;5071580;28;19946;-63
2024/03/06 02:02:07;;;;;;;;;;;8.10;89.60;;;;;;5069157;28;19928;-63
2024/03/06 02:04:40;;;;;;;;;;;8.10;89.70;;;;;;5072947;28;19932;-64
2024/03/06 02:07:14;;;;;;;;;;;8.10;89.70;;;;;;5072762;28;19932;-65
2024/03/06 02:09:49;;;;;;;;;;;8.10;89.70;;;;;;5082132;28;20394;-65
2024/03/06 02:12:22;;;;;;;;;;;8.10;89.60;;;;;;5074304;28;19928;-64
2024/03/06 02:14:55;;;;;;;;;;;8.10;89.60;;;;;;5066247;28;19935;-64
2024/03/06 02:17:29;;;;;;;;;;;8.10;89.70;;;;;;5068067;28;19979;-64
2024/03/06 02:20:05;;;;;;;;;;;8.00;89.80;;;;;;5071183;28;19924;-64
2024/03/06 02:22:40;;;;;;;;;;;8.00;89.80;;;;;;5071101;28;19969;-64
2024/03/06 02:25:14;;;;;;;;;;;8.00;89.80;;;;;;5071661;28;20027;-63
2024/03/06 02:27:49;;;;;;;;;;;8.00;89.80;;;;;;5075971;28;20023;-65
2024/03/06 02:30:22;;;;;;;;;;;8.00;89.80;;;;;;5076526;28;19940;-61
2024/03/06 02:32:55;;;;;;;;;;;8.00;89.90;;;;;;5078986;28;19997;-65
2024/03/06 02:35:28;;;;;;;;;;;8.00;89.80;;;;;;5072541;28;19936;-64
2024/03/06 02:38:04;;;;;;;;;;;7.90;89.80;;;;;;5075380;28;19934;-63
2024/03/06 02:40:37;;;;;;;;;;;8.00;89.90;;;;;;5077346;28;20059;-64
2024/03/06 02:43:10;;;;;;;;;;;8.00;89.80;;;;;;5076497;28;19929;-65
2024/03/06 02:45:43;;;;;;;;;;;8.00;89.80;;;;;;5076966;28;19924;-64
2024/03/06 02:48:17;;;;;;;;;;;7.90;89.70;;;;;;5076147;28;19935;-64
2024/03/06 02:50:50;;;;;;;;;;;8.00;89.80;;;;;;5077279;28;20399;-64
2024/03/06 02:53:26;;;;;;;;;;;8.00;89.70;;;;;;5075581;28;19928;-62
2024/03/06 02:56:00;;;;;;;;;;;8.00;89.70;;;;;;5075076;28;19928;-64
2024/03/06 02:58:40;;;;;;;;;;;8.00;89.70;;;;;;5075681;28;19924;-60
2024/03/06 03:01:14;;;;;;;;;;;7.90;89.80;;;;;;5074285;28;20021;-60
2024/03/06 03:03:41;;;;;;;;;;;7.90;89.80;;;;;;5075140;28;19971;-60
2024/03/06 03:06:14;;;;;;;;;;;7.90;89.70;;;;;;5074351;28;19928;-60
2024/03/06 03:08:43;;;;;;;;;;;7.90;89.60;;;;;;5079054;28;20516;-60
2024/03/06 03:11:15;;;;;;;;;;;7.90;89.70;;;;;;5069998;28;19928;-60
2024/03/06 03:13:42;;;;;;;;;;;7.80;89.70;;;;;;5073424;28;20550;-61
2024/03/06 03:16:18;;;;;;;;;;;7.70;89.80;;;;;;5076398;28;20027;-62
2024/03/06 03:18:51;;;;;;;;;;;7.80;89.60;;;;;;5076465;28;20015;-61
2024/03/06 03:21:24;;;;;;;;;;;7.70;89.70;;;;;;5075621;28;19931;-60
2024/03/06 03:23:59;;;;;;;;;;;7.70;89.70;;;;;;5075160;28;20354;-59
2024/03/06 03:26:32;;;;;;;;;;;7.70;89.60;;;;;;5069771;28;20023;-61
2024/03/06 03:29:05;;;;;;;;;;;7.70;89.60;;;;;;5073695;28;19940;-60
2024/03/06 03:31:38;;;;;;;;;;;7.70;89.70;;;;;;5071986;28;19939;-61
2024/03/06 03:34:11;;;;;;;;;;;7.70;89.70;;;;;;5074256;28;20466;-59
2024/03/06 03:36:44;;;;;;;;;;;7.70;89.80;;;;;;5074191;28;20043;-59
2024/03/06 03:39:21;;;;;;;;;;;7.70;89.90;;;;;;5073908;28;19959;-60
2024/03/06 03:41:54;;;;;;;;;;;7.70;90.00;;;;;;5072351;28;19924;-61
2024/03/06 03:44:27;;;;;;;;;;;7.70;90.10;;;;;;5075412;28;19959;-59
2024/03/06 03:47:00;;;;;;;;;;;7.70;90.10;;;;;;5075192;28;19932;-59
2024/03/06 03:49:33;;;;;;;;;;;7.70;90.10;;;;;;5074668;28;20694;-59
2024/03/06 03:52:07;;;;;;;;;;;7.70;90.10;;;;;;5073823;28;20416;-59
2024/03/06 03:54:42;;;;;;;;;;;7.70;90.00;;;;;;5072942;28;20011;-59
2024/03/06 03:57:17;;;;;;;;;;;7.70;89.90;;;;;;5074086;28;19924;-59
2024/03/06 03:59:51;;;;;;;;;;;7.80;90.00;;;;;;5075727;28;20017;-60
2024/03/06 04:02:25;;;;;;;;;;;7.70;90.10;;;;;;5075366;28;19924;-59
2024/03/06 04:04:58;;;;;;;;;;;7.70;90.10;;;;;;5075192;28;19928;-60
2024/03/06 04:07:31;;;;;;;;;;;7.70;90.10;;;;;;5075838;28;20403;-58
2024/03/06 04:10:06;;;;;;;;;;;7.70;90.00;;;;;;5074617;28;20006;-59
2024/03/06 04:16:07;;;;;;;;;;;7.70;89.90;;;;;;5071376;28;19976;-61
2024/03/06 04:18:40;;;;;;;;;;;7.70;90.00;;;;;;5076655;28;19974;-59
2024/03/06 04:21:14;;;;;;;;;;;7.70;90.00;;;;;;5074212;28;19933;-58
2024/03/06 04:23:41;;;;;;;;;;;7.70;90.00;;;;;;5073132;28;19946;-61
2024/03/06 04:26:17;;;;;;;;;;;7.70;89.90;;;;;;5075552;28;20381;-60
2024/03/06 04:28:50;;;;;;;;;;;7.70;90.00;;;;;;5075915;28;19928;-59
2024/03/06 04:31:23;;;;;;;;;;;7.70;90.00;;;;;;5073560;28;19928;-59
2024/03/06 04:33:56;;;;;;;;;;;7.70;90.00;;;;;;5072081;28;20039;-59
2024/03/06 04:36:29;;;;;;;;;;;7.70;90.10;;;;;;5074476;28;20482;-58
2024/03/06 04:39:07;;;;;;;;;;;7.70;90.10;;;;;;5074128;28;19924;-59
2024/03/06 04:41:42;;;;;;;;;;;7.70;90.00;;;;;;5076111;28;20035;-62
2024/03/06 04:44:15;;;;;;;;;;;7.80;90.00;;;;;;5076228;28;19935;-59
2024/03/06 04:46:50;;;;;;;;;;;7.80;89.90;;;;;;5075575;28;19932;-60
2024/03/06 04:49:23;;;;;;;;;;;7.80;90.00;;;;;;5076787;28;19924;-59
2024/03/06 04:51:56;;;;;;;;;;;7.80;90.10;;;;;;5074836;28;19978;-58
2024/03/06 04:54:29;;;;;;;;;;;7.80;90.10;;;;;;5070950;28;20818;-59
2024/03/06 04:57:04;;;;;;;;;;;7.70;90.20;;;;;;5073972;28;19931;-60
2024/03/06 04:59:38;;;;;;;;;;;7.70;90.40;;;;;;5075579;28;19932;-59
2024/03/06 05:02:04;;;;;;;;;;;7.70;90.40;;;;;;5073892;28;19924;-59
2024/03/06 05:04:37;;;;;;;;;;;7.70;90.30;;;;;;5067720;28;19924;-59
2024/03/06 05:07:10;;;;;;;;;;;7.80;90.20;;;;;;5072461;28;19956;-60
2024/03/06 05:09:43;;;;;;;;;;;7.80;90.20;;;;;;5077815;28;19948;-60
2024/03/06 05:12:18;;;;;;;;;;;7.70;90.30;;;;;;5075523;28;19950;-59
2024/03/06 05:14:51;;;;;;;;;;;7.70;90.30;;;;;;5076727;28;19976;-58
2024/03/06 05:17:24;;;;;;;;;;;7.70;90.30;;;;;;5075746;28;19928;-59
2024/03/06 05:19:57;;;;;;;;;;;7.70;90.40;;;;;;5074959;28;19954;-58
2024/03/06 05:22:30;;;;;;;;;;;7.70;90.30;;;;;;5079325;28;19950;-59
2024/03/06 05:25:05;;;;;;;;;;;7.70;90.40;;;;;;5077500;28;19956;-60
2024/03/06 05:27:40;;;;;;;;;;;7.70;90.40;;;;;;5074936;28;19928;-61
2024/03/06 05:30:14;;;;;;;;;;;7.70;90.40;;;;;;5072994;28;20303;-60
2024/03/06 05:32:47;;;;;;;;;;;7.70;90.30;;;;;;5075399;28;19924;-58
2024/03/06 05:35:20;;;;;;;;;;;7.70;90.30;;;;;;5072896;28;20153;-59
2024/03/06 05:37:53;;;;;;;;;;;7.70;90.40;;;;;;5072497;28;19924;-60
2024/03/06 05:40:26;;;;;;;;;;;7.70;90.50;;;;;;5075114;28;19939;-61
2024/03/06 05:43:01;;;;;;;;;;;7.70;90.50;;;;;;5074766;28;19967;-58
2024/03/06 05:45:34;;;;;;;;;;;7.70;90.40;;;;;;5074260;28;20027;-59
2024/03/06 05:48:08;;;;;;;;;;;7.70;90.50;;;;;;5073568;28;19932;-60
2024/03/06 05:50:35;;;;;;;;;;;7.70;90.40;;;;;;5077498;28;19924;-58
2024/03/06 05:53:07;;;;;;;;;;;7.70;90.60;;;;;;5077635;28;19981;-59
2024/03/06 05:55:40;;;;;;;;;;;7.70;90.50;;;;;;5076463;28;19932;-60
2024/03/06 05:58:16;;;;;;;;;;;7.70;90.40;;;;;;5077549;28;19932;-59
2024/03/06 06:00:49;;;;;;;;;;;7.70;90.50;;;;;;5071924;28;19938;-59
2024/03/06 06:03:22;;;;;;;;;;;7.70;90.40;;;;;;5076812;28;19924;-58
2024/03/06 06:05:56;;;;;;;;;;;7.70;90.50;;;;;;5079035;28;19924;-59
2024/03/06 06:08:29;;;;;;;;;;;7.70;90.40;;;;;;5079760;28;20378;-58
2024/03/06 06:11:03;;;;;;;;;;;7.70;90.40;;;;;;5080127;28;19949;-59
2024/03/06 06:13:39;;;;;;;;;;;7.70;90.40;;;;;;5080615;28;19950;-59
2024/03/06 06:16:06;;;;;;;;;;;7.70;90.40;;;;;;5078034;28;19928;-58
2024/03/06 06:18:41;;;;;;;;;;;7.70;90.40;;;;;;5080409;28;20007;-59
2024/03/06 06:21:16;;;;;;;;;;;7.70;90.60;;;;;;5078724;28;20371;-58
2024/03/06 06:23:48;;;;;;;;;;;7.70;90.50;;;;;;5080337;28;19934;-59
2024/03/06 06:26:28;;;;;;;;;;;7.70;90.50;;;;;;5081391;28;19935;-59
2024/03/06 06:29:03;;;;;;;;;;;7.70;90.40;;;;;;5079618;28;19924;-59
2024/03/06 06:31:30;;;;;;;;;;;7.70;90.30;;;;;;5073903;28;19943;-60
2024/03/06 06:34:02;;;;;;;;;;;7.70;90.30;;;;;;5075260;28;19924;-59
2024/03/06 06:36:37;;;;;;;;;;;7.80;90.40;;;;;;5077350;28;19924;-58
2024/03/06 06:39:12;;;;;;;;;;;7.80;90.40;;;;;;5078541;28;19924;-59
2024/03/06 06:41:44;;;;;;;;;;;7.70;90.40;;;;;;5077916;28;19924;-60
2024/03/06 06:44:19;;;;;;;;;;;7.80;90.50;;;;;;5079904;28;19974;-58
2024/03/06 06:46:52;;;;;;;;;;;7.80;90.50;;;;;;5079958;28;19924;-59
2024/03/06 06:49:25;;;;;;;;;;;7.80;90.40;;;;;;5075531;28;19924;-58
2024/03/06 06:51:58;;;;;;;;;;;7.80;90.50;;;;;;5079758;28;19928;-59
2024/03/06 06:54:31;;;;;;;;;;;7.80;90.40;;;;;;5079102;28;19928;-58
2024/03/06 06:57:04;;;;;;;;;;;7.80;90.40;;;;;;5079153;28;19928;-57
2024/03/06 06:59:39;;;;;;;;;;;7.80;90.40;;;;;;5080643;28;20436;-57
2024/03/06 07:02:12;;;;;;;;;;;7.80;90.40;;;;;;5078601;28;22536;-59
2024/03/06 07:04:45;;;;;;;;;;;7.80;90.40;;;;;;5078919;28;20383;-59
2024/03/06 07:07:18;;;;;;;;;;;7.80;90.50;;;;;;5077132;28;19934;-58
2024/03/06 07:09:52;;;;;;;;;;;7.80;90.40;;;;;;5077545;28;20014;-60
2024/03/06 07:12:25;;;;;;;;;;;7.80;90.40;;;;;;5078923;28;19935;-58
2024/03/06 07:15:00;;;;;;;;;;;7.90;90.30;;;;;;5077713;28;20343;-58
2024/03/06 07:17:34;;;;;;;;;;;7.80;90.20;;;;;;5078804;28;19936;-58
2024/03/06 07:20:08;;;;;;;;;;;7.90;90.30;;;;;;5078644;28;19929;-60
2024/03/06 07:22:42;;;;;;;;;;;7.90;90.30;;;;;;5077329;28;19936;-59
2024/03/06 07:25:16;;;;;;;;;;;7.90;90.30;;;;;;5074637;28;19935;-58
2024/03/06 07:27:48;;;;;;;;;;;7.90;90.40;;;;;;5077020;28;19997;-59
2024/03/06 07:30:23;;;;;;;;;;;7.90;90.20;;;;;;5079552;28;19924;-58
2024/03/06 07:32:57;;;;;;;;;;;7.90;90.10;;;;;;5080079;28;19973;-59
2024/03/06 07:35:30;;;;;;;;;;;8.00;90.20;;;;;;5076885;28;20458;-58
2024/03/06 07:38:05;;;;;;;;;;;8.00;90.10;;;;;;5077296;28;19932;-58
2024/03/06 07:40:37;;;;;;;;;;;8.00;89.90;;;;;;5078790;28;19967;-59
2024/03/06 07:43:11;;;;;;;;;;;8.00;90.00;;;;;;5075604;28;19979;-60
2024/03/06 07:45:45;;;;;;;;;;;8.00;90.10;;;;;;5076065;28;19948;-61
2024/03/06 07:48:20;;;;;;;;;;;8.10;90.00;;;;;;5078213;28;20047;-61
2024/03/06 07:50:53;;;;;;;;;;;8.10;89.80;;;;;;5077336;28;19925;-63
2024/03/06 07:53:26;;;;;;;;;;;8.00;90.00;;;;;;5078255;28;19924;-61
2024/03/06 07:56:00;;;;;;;;;;;8.10;90.10;;;;;;5077187;28;20383;-61
2024/03/06 07:58:32;;;;;;;;;;;8.10;89.80;;;;;;5078631;28;19924;-61
2024/03/06 08:01:07;;;;;;;;;;;8.10;89.90;;;;;;5072098;28;19924;-60
2024/03/06 08:03:42;;;;;;;;;;;8.10;90.10;;;;;;5078027;28;19979;-60
2024/03/06 08:06:16;;;;;;;;;;;8.20;90.00;;;;;;5076605;28;19924;-59
2024/03/06 08:08:49;;;;;;;;;;;8.30;89.70;;;;;;5075939;28;19924;-61
2024/03/06 08:11:22;;;;;;;;;;;8.40;89.70;;;;;;5077609;28;20370;-60
2024/03/06 08:13:58;;;;;;;;;;;8.40;89.60;;;;;;5078181;28;19928;-60
2024/03/06 08:16:33;;;;;;;;;;;8.50;89.50;;;;;;5077267;28;19932;-61
2024/03/06 08:19:05;;;;;;;;;;;8.50;89.60;;;;;;5075647;28;20031;-59
2024/03/06 08:21:39;;;;;;;;;;;8.40;89.40;;;;;;5079166;28;19924;-61
2024/03/06 08:24:13;;;;;;;;;;;8.40;89.30;;;;;;5075607;28;20118;-60
2024/03/06 08:26:39;;;;;;;;;;;8.40;89.40;;;;;;5075555;28;19979;-59
2024/03/06 08:29:13;;;;;;;;;;;8.40;89.40;;;;;;5076575;28;19954;-61
2024/03/06 08:31:47;;;;;;;;;;;8.40;89.50;;;;;;5075834;28;20398;-60
2024/03/06 08:34:22;;;;;;;;;;;8.40;89.50;;;;;;5078308;28;19924;-60
2024/03/06 08:36:56;;;;;;;;;;;8.40;89.50;;;;;;5077038;28;19935;-61
2024/03/06 08:39:30;;;;;;;;;;;8.40;89.30;;;;;;5078725;28;19924;-59
2024/03/06 08:42:03;;;;;;;;;;;8.40;89.50;;;;;;5074762;28;20394;-59
2024/03/06 08:44:36;;;;;;;;;;;8.40;89.40;;;;;;5078474;28;19928;-61
2024/03/06 08:47:11;;;;;;;;;;;8.40;89.60;;;;;;5075137;28;19928;-59
2024/03/06 08:49:45;;;;;;;;;;;8.40;89.50;;;;;;5077551;28;19931;-60
2024/03/06 08:55:52;;;;;;;;;;;8.50;89.50;;;;;;5071434;28;19981;-60
2024/03/06 08:58:26;;;;;;;;;;;8.50;89.60;;;;;;5078169;28;19924;-61
2024/03/06 09:00:59;;;;;;;;;;;8.50;89.50;;;;;;5076257;28;20513;-59
2024/03/06 09:03:33;;;;;;;;;;;8.60;89.50;;;;;;5077303;28;19924;-59
2024/03/06 09:06:07;;;;;;;;;;;8.60;89.40;;;;;;5076298;28;19975;-60
2024/03/06 09:08:39;;;;;;;;;;;8.60;89.30;;;;;;5066900;28;19925;-60
2024/03/06 09:11:07;;;;;;;;;;;8.60;89.20;;;;;;5076136;28;19924;-59
2024/03/06 09:13:39;;;;;;;;;;;8.60;89.20;;;;;;5076673;28;19928;-62
2024/03/06 09:16:12;;;;;;;;;;;8.60;89.20;;;;;;5074572;28;19932;-60
2024/03/06 09:22:22;;;;;;;;;;;8.70;88.90;;;;;;5076356;28;20016;-60
2024/03/06 09:24:56;;;;;;;;;;;8.70;88.80;;;;;;5071838;28;19957;-60
2024/03/06 09:27:30;;;;;;;;;;;8.70;88.60;;;;;;5076072;28;19935;-60
2024/03/06 09:30:04;;;;;;;;;;;8.70;88.50;;;;;;5075330;28;19937;-60
2024/03/06 09:32:38;;;;;;;;;;;8.70;88.30;;;;;;5076412;28;20356;-60
2024/03/06 09:35:12;;;;;;;;;;;8.80;88.20;;;;;;5075157;28;20425;-60
2024/03/06 09:37:48;;;;;;;;;;;8.80;88.10;;;;;;5077510;28;19925;-60
2024/03/06 09:40:22;;;;;;;;;;;8.80;88.10;;;;;;5079077;28;20441;-61
2024/03/06 09:42:55;;;;;;;;;;;8.80;87.90;;;;;;5079259;28;19931;-61
2024/03/06 09:45:28;;;;;;;;;;;8.90;87.80;;;;;;5080253;28;19936;-60
2024/03/06 09:51:38;;;;;;;;;;;9.10;87.50;;;;;;5083216;28;19965;-59
2024/03/06 09:54:14;;;;;;;;;;;9.20;87.00;;;;;;5080014;28;20291;-60
2024/03/06 09:56:48;;;;;;;;;;;9.30;86.70;;;;;;5080918;28;19936;-61
2024/03/06 09:59:21;;;;;;;;;;;9.40;86.30;;;;;;5075249;28;19936;-62
2024/03/06 10:01:55;;;;;;;;;;;9.50;86.00;;;;;;5076597;28;19975;-61
2024/03/06 10:04:28;;;;;;;;;;;9.60;85.70;;;;;;5077532;28;20040;-61
2024/03/06 10:07:02;;;;;;;;;;;9.60;85.50;;;;;;5076984;28;19924;-61
2024/03/06 10:09:38;;;;;;;;;;;9.70;85.20;;;;;;5075841;28;19931;-62
2024/03/06 10:12:13;;;;;;;;;;;9.80;85.10;;;;;;5083113;28;19935;-61
2024/03/06 10:14:52;;;;;;;;;;;9.80;84.80;;;;;;5076653;28;20011;-61
2024/03/06 10:17:26;;;;;;;;;;;9.90;84.50;;;;;;5077640;28;20360;-62
2024/03/06 10:20:04;;;;;;;;;;;9.90;84.40;;;;;;5079895;28;19928;-61
2024/03/06 10:22:39;;;;;;;;;;;9.90;84.30;;;;;;5078442;28;20385;-63
2024/03/06 10:25:14;;;;;;;;;;;9.90;84.10;;;;;;5078581;28;19932;-61
2024/03/06 10:27:48;;;;;;;;;;;10.00;83.80;;;;;;5079511;28;19929;-61
2024/03/06 10:30:21;;;;;;;;;;;10.10;83.50;;;;;;5079784;28;19943;-62
2024/03/06 10:32:54;;;;;;;;;;;10.20;83.40;;;;;;5079798;28;19928;-62
2024/03/06 10:35:29;;;;;;;;;;;10.30;82.90;;;;;;5080514;28;19932;-62
2024/03/06 10:38:02;;;;;;;;;;;10.40;82.80;;;;;;5078224;28;19931;-63
2024/03/06 10:40:38;;;;;;;;;;;10.50;82.70;;;;;;5077733;28;19935;-63
2024/03/06 10:43:11;;;;;;;;;;;10.60;82.40;;;;;;5080497;28;19924;-61
2024/03/06 10:45:47;;;;;;;;;;;10.60;82.30;;;;;;5079464;28;19928;-62
2024/03/06 10:48:14;;;;;;;;;;;10.60;82.30;;;;;;5078779;28;20352;-62
2024/03/06 10:50:49;;;;;;;;;;;10.60;82.00;;;;;;5079181;28;19936;-62
2024/03/06 10:53:23;;;;;;;;;;;10.60;82.10;;;;;;5080305;28;19928;-62
2024/03/06 10:55:57;;;;;;;;;;;10.60;82.10;;;;;;5079464;28;19942;-62
2024/03/06 10:58:31;;;;;;;;;;;10.70;82.20;;;;;;5079339;28;19952;-63
2024/03/06 11:01:05;;;;;;;;;;;10.70;82.10;;;;;;5075955;28;20361;-63
2024/03/06 11:03:38;;;;;;;;;;;10.70;82.20;;;;;;5078056;28;19924;-61
2024/03/06 11:06:12;;;;;;;;;;;10.70;82.00;;;;;;5076725;28;19944;-61
2024/03/06 11:08:45;;;;;;;;;;;10.70;82.00;;;;;;5079356;28;19924;-60
2024/03/06 11:11:22;;;;;;;;;;;10.60;81.60;;;;;;5077693;28;19932;-59
2024/03/06 11:13:57;;;;;;;;;;;10.70;81.40;;;;;;5075461;28;19928;-65
2024/03/06 11:16:33;;;;;;;;;;;10.80;81.10;;;;;;5078664;28;20348;-61
2024/03/06 11:19:07;;;;;;;;;;;10.80;80.90;;;;;;5076256;28;19973;-58
2024/03/06 11:21:49;;;;;;;;;;;10.90;80.70;;;;;;5079772;28;19935;-61
2024/03/06 11:24:22;;;;;;;;;;;11.10;80.40;;;;;;5080019;28;19981;-58
2024/03/06 11:26:59;;;;;;;;;;;11.20;80.10;;;;;;5077340;28;20026;-59
2024/03/06 11:29:51;;;;;;;;;;;11.20;79.80;;;;;;5078778;28;19978;-60
2024/03/06 11:32:30;;;;;;;;;;;11.30;79.50;;;;;;5071879;28;19959;-60
2024/03/06 11:35:05;;;;;;;;;;;11.40;79.30;;;;;;5078168;28;19932;-60
2024/03/06 11:37:46;;;;;;;;;;;11.50;79.30;;;;;;5075404;28;19928;-62
2024/03/06 11:40:24;;;;;;;;;;;11.60;79.00;;;;;;5078164;28;19928;-60
2024/03/06 11:43:18;;;;;;;;;;;11.60;78.40;;;;;;5076502;28;19969;-60
2024/03/06 11:45:52;;;;;;;;;;;11.50;78.70;;;;;;5079447;28;19982;-59
2024/03/06 11:48:25;;;;;;;;;;;11.40;78.60;;;;;;5077372;28;19928;-59
2024/03/06 11:50:53;;;;;;;;;;;11.40;78.80;;;;;;5079904;28;19932;-61
2024/03/06 11:53:26;;;;;;;;;;;11.40;78.60;;;;;;5075316;28;20348;-58
2024/03/06 11:55:59;;;;;;;;;;;11.50;78.40;;;;;;5077807;28;20568;-59
2024/03/06 11:58:33;;;;;;;;;;;11.60;78.20;;;;;;5076945;28;19928;-60
2024/03/06 12:01:07;;;;;;;;;;;11.60;78.10;;;;;;5077169;28;19935;-60
2024/03/06 12:03:42;;;;;;;;;;;11.60;77.90;;;;;;5078034;28;20428;-60
2024/03/06 12:06:30;;;;;;;;;;;11.70;77.20;;;;;;5075909;28;26584;-59
2024/03/06 12:09:11;;;;;;;;;;;11.70;77.00;;;;;;5078307;28;19932;-59
2024/03/06 12:11:45;;;;;;;;;;;11.80;77.00;;;;;;5074776;28;19933;-59
2024/03/06 12:14:19;;;;;;;;;;;11.80;77.10;;;;;;5076471;28;19931;-60
2024/03/06 12:16:57;;;;;;;;;;;11.90;77.00;;;;;;5071461;28;19925;-68
2024/03/06 12:19:32;;;;;;;;;;;11.80;77.00;;;;;;5074368;28;19924;-71
2024/03/06 12:22:06;;;;;;;;;;;11.80;77.10;;;;;;5076020;28;19931;-70
2024/03/06 12:24:40;;;;;;;;;;;11.90;76.60;;;;;;5075648;28;19928;-70
2024/03/06 12:27:13;;;;;;;;;;;12.00;77.00;;;;;;5076228;28;19932;-71
2024/03/06 12:29:53;;;;;;;;;;;12.00;76.30;;;;;;5077344;28;19928;-71
2024/03/06 12:32:29;;;;;;;;;;;12.00;76.50;;;;;;5075280;28;19925;-70
2024/03/06 12:35:03;;;;;;;;;;;12.10;76.00;;;;;;5077138;28;19928;-70
2024/03/06 12:37:36;;;;;;;;;;;12.10;76.00;;;;;;5075915;28;19927;-70
2024/03/06 12:40:13;;;;;;;;;;;12.00;76.20;;;;;;5075059;28;19936;-71
2024/03/06 12:42:46;;;;;;;;;;;12.10;76.00;;;;;;5078215;28;19928;-71
2024/03/06 12:45:20;;;;;;;;;;;12.10;76.00;;;;;;5078008;28;19932;-71
2024/03/06 12:47:55;;;;;;;;;;;12.00;75.90;;;;;;5074643;28;19968;-70
2024/03/06 12:50:29;;;;;;;;;;;12.00;76.10;;;;;;5077628;28;19999;-71
2024/03/06 12:53:04;;;;;;;;;;;12.00;76.00;;;;;;5078655;28;19925;-71
2024/03/06 12:55:38;;;;;;;;;;;12.00;75.80;;;;;;5076370;28;19928;-71
2024/03/06 12:58:11;;;;;;;;;;;12.00;75.70;;;;;;5079146;28;19924;-70
2024/03/06 13:00:45;;;;;;;;;;;12.00;75.90;;;;;;5077230;28;20011;-72
2024/03/06 13:03:12;;;;;;;;;;;11.90;76.20;;;;;;5075996;28;19947;-70
2024/03/06 13:05:46;;;;;;;;;;;12.00;75.20;;;;;;5073941;28;20002;-71
2024/03/06 13:08:19;;;;;;;;;;;12.00;75.80;;;;;;5074968;28;19986;-70
2024/03/06 13:10:52;;;;;;;;;;;11.90;76.30;;;;;;5076236;28;20015;-72
2024/03/06 13:13:25;;;;;;;;;;;12.00;75.80;;;;;;5066925;28;19928;-71
2024/03/06 13:15:59;;;;;;;;;;;12.00;76.00;;;;;;5071275;28;19924;-72
2024/03/06 13:18:33;;;;;;;;;;;12.10;75.30;;;;;;5074882;28;19928;-71
2024/03/06 13:21:06;;;;;;;;;;;12.10;75.30;;;;;;5072424;28;19924;-72
2024/03/06 13:23:39;;;;;;;;;;;12.10;75.30;;;;;;5072467;28;20237;-70
2024/03/06 13:26:13;;;;;;;;;;;12.10;75.60;;;;;;5076977;28;20359;-73
2024/03/06 13:28:47;;;;;;;;;;;12.10;75.40;;;;;;5075233;28;19977;-59
2024/03/06 13:31:21;;;;;;;;;;;12.10;75.50;;;;;;5076622;28;20312;-60
2024/03/06 13:33:55;;;;;;;;;;;12.10;75.10;;;;;;5076429;28;19932;-60
2024/03/06 13:36:22;;;;;;;;;;;12.10;75.10;;;;;;5074780;28;19930;-61
2024/03/06 13:39:01;;;;;;;;;;;12.10;74.80;;;;;;5073697;28;19998;-60
2024/03/06 13:41:35;;;;;;;;;;;12.10;75.10;;;;;;5077448;28;20383;-61
2024/03/06 13:44:09;;;;;;;;;;;12.00;75.10;;;;;;5073625;28;20380;-59
2024/03/06 13:46:43;;;;;;;;;;;12.00;75.40;;;;;;5077794;28;19964;-60
2024/03/06 13:49:36;;;;;;;;;;;11.90;75.40;;;;;;5075518;28;19929;-61
2024/03/06 13:52:13;;;;;;;;;;;12.00;75.30;;;;;;5075364;28;19973;-60
2024/03/06 13:54:46;;;;;;;;;;;12.00;75.50;;;;;;5076559;28;19928;-60
2024/03/06 13:57:19;;;;;;;;;;;11.90;75.10;;;;;;5076328;28;19932;-59
2024/03/06 13:59:52;;;;;;;;;;;11.90;75.20;;;;;;5072493;28;20005;-59
2024/03/06 14:02:26;;;;;;;;;;;11.90;75.10;;;;;;5073443;28;19936;-61
2024/03/06 14:04:53;;;;;;;;;;;11.80;75.00;;;;;;5075898;28;19989;-63
2024/03/06 14:07:26;;;;;;;;;;;11.80;75.20;;;;;;5074798;28;19932;-59
2024/03/06 14:09:53;;;;;;;;;;;11.80;75.10;;;;;;5076862;28;20021;-61
2024/03/06 14:12:27;;;;;;;;;;;11.80;75.50;;;;;;5068205;28;19924;-58
2024/03/06 14:15:00;;;;;;;;;;;11.80;75.10;;;;;;5073500;28;19935;-60
2024/03/06 14:17:34;;;;;;;;;;;11.90;74.80;;;;;;5073437;28;20291;-59
2024/03/06 14:20:08;;;;;;;;;;;11.90;74.80;;;;;;5075096;28;19963;-60
2024/03/06 14:22:42;;;;;;;;;;;11.90;75.00;;;;;;5073416;28;19925;-59
2024/03/06 14:25:15;;;;;;;;;;;11.80;74.80;;;;;;5076704;28;19928;-60
2024/03/06 14:27:49;;;;;;;;;;;11.90;74.70;;;;;;5074554;28;19925;-60
2024/03/06 14:30:23;;;;;;;;;;;11.90;75.50;;;;;;5077183;28;19934;-59
2024/03/06 14:32:57;;;;;;;;;;;11.90;75.00;;;;;;5078298;28;19939;-60
2024/03/06 14:35:31;;;;;;;;;;;11.80;74.50;;;;;;5077928;28;19982;-59
2024/03/06 14:38:04;;;;;;;;;;;11.90;75.30;;;;;;5078289;28;19924;-64
2024/03/06 14:40:37;;;;;;;;;;;11.80;74.80;;;;;;5078662;28;20020;-63
2024/03/06 14:43:10;;;;;;;;;;;11.70;75.20;;;;;;5074045;28;19981;-62
2024/03/06 14:45:43;;;;;;;;;;;11.70;75.10;;;;;;5075409;28;19935;-63
2024/03/06 14:48:17;;;;;;;;;;;11.60;75.20;;;;;;5078635;28;19925;-63
2024/03/06 14:50:51;;;;;;;;;;;11.60;75.60;;;;;;5078970;28;19924;-63
2024/03/06 14:53:18;;;;;;;;;;;11.60;75.30;;;;;;5077580;28;19935;-63
2024/03/06 14:55:51;;;;;;;;;;;11.60;75.00;;;;;;5078249;28;19924;-62
2024/03/06 14:58:30;;;;;;;;;;;11.50;75.50;;;;;;5076494;28;19931;-62
2024/03/06 15:01:04;;;;;;;;;;;11.50;75.60;;;;;;5074279;28;19947;-64
2024/03/06 15:03:38;;;;;;;;;;;11.50;75.60;;;;;;5083528;28;20298;-64
2024/03/06 15:06:12;;;;;;;;;;;11.50;75.10;;;;;;5075790;28;20060;-63
2024/03/06 15:08:46;;;;;;;;;;;11.50;75.60;;;;;;5078226;28;19950;-63
2024/03/06 15:11:21;;;;;;;;;;;11.50;75.70;;;;;;5076832;28;19971;-63
2024/03/06 15:13:54;;;;;;;;;;;11.40;75.60;;;;;;5075919;28;20022;-65
2024/03/06 15:16:21;;;;;;;;;;;11.40;76.00;;;;;;5077284;28;19978;-62
2024/03/06 15:18:57;;;;;;;;;;;11.50;75.80;;;;;;5075470;28;19927;-63